sensor_id;sensor_type;location;lat;lon;timestamp;P1;durP1;ratioP1;P2;durP2;ratioP2
7173;SDS011;3628;48.654;8.932;2023-04-01T00:01:12;0.50;;;0.30;;
7173;SDS011;3628;48.654;8.932;2023-04-01T00:03:41;1.53;;;0.63;;
7173;SDS011;3628;48.654;8.932;2023-04-01T00:06:09;2.83;;;0.60;;
7173;SDS011;3628;48.654;8.932;2023-04-01T00:08:37;3.30;;;0.70;;
7173;SDS011;3628;48.654;8.932;2023-04-01T00:11:03;1.90;;;0.63;;
7173;SDS011;3628;48.654;8.932;2023-04-01T00:13:28;2.37;;;0.60;;
7173;SDS011;3628;48.654;8.932;2023-04-01T00:15:54;0.93;;;0.53;;
7173;SDS011;3628;48.654;8.932;2023-04-01T00:18:20;2.13;;;0.40;;
7173;SDS011;3628;48.654;8.932;2023-04-01T00:20:46;2.87;;;0.50;;
7173;SDS011;3628;48.654;8.932;2023-04-01T00:23:13;2.23;;;0.40;;
7173;SDS011;3628;48.654;8.932;2023-04-01T00:25:39;0.77;;;0.50;;
7173;SDS011;3628;48.654;8.932;2023-04-01T00:28:05;2.63;;;0.60;;
7173;SDS011;3628;48.654;8.932;2023-04-01T00:30:31;1.13;;;0.67;;
7173;SDS011;3628;48.654;8.932;2023-04-01T00:32:57;2.70;;;0.70;;
7173;SDS011;3628;48.654;8.932;2023-04-01T00:35:22;1.77;;;0.60;;
7173;SDS011;3628;48.654;8.932;2023-04-01T00:37:48;1.40;;;0.40;;
7173;SDS011;3628;48.654;8.932;2023-04-01T00:43:03;0.90;;;0.40;;
7173;SDS011;3628;48.654;8.932;2023-04-01T00:45:35;0.87;;;0.23;;
7173;SDS011;3628;48.654;8.932;2023-04-01T00:50:51;1.10;;;0.27;;
7173;SDS011;3628;48.654;8.932;2023-04-01T00:53:19;1.03;;;0.33;;
7173;SDS011;3628;48.654;8.932;2023-04-01T00:55:50;1.33;;;0.27;;
7173;SDS011;3628;48.654;8.932;2023-04-01T00:58:50;2.60;;;0.73;;
7173;SDS011;3628;48.654;8.932;2023-04-01T01:01:20;2.27;;;0.50;;
7173;SDS011;3628;48.654;8.932;2023-04-01T01:03:48;1.47;;;0.40;;
7173;SDS011;3628;48.654;8.932;2023-04-01T01:06:20;1.87;;;0.50;;
7173;SDS011;3628;48.654;8.932;2023-04-01T01:12:03;1.47;;;0.30;;
7173;SDS011;3628;48.654;8.932;2023-04-01T01:20:31;0.77;;;0.30;;
7173;SDS011;3628;48.654;8.932;2023-04-01T01:23:18;1.77;;;0.40;;
7173;SDS011;3628;48.654;8.932;2023-04-01T01:31:55;1.50;;;0.30;;
7173;SDS011;3628;48.654;8.932;2023-04-01T01:37:17;1.40;;;0.30;;
7173;SDS011;3628;48.654;8.932;2023-04-01T01:39:47;1.90;;;0.40;;
7173;SDS011;3628;48.654;8.932;2023-04-01T01:42:18;1.13;;;0.20;;
7173;SDS011;3628;48.654;8.932;2023-04-01T01:44:46;0.53;;;0.30;;
7173;SDS011;3628;48.654;8.932;2023-04-01T01:47:14;0.63;;;0.20;;
7173;SDS011;3628;48.654;8.932;2023-04-01T01:49:41;1.43;;;0.30;;
7173;SDS011;3628;48.654;8.932;2023-04-01T01:52:10;0.57;;;0.30;;
7173;SDS011;3628;48.654;8.932;2023-04-01T01:54:46;1.60;;;0.53;;
7173;SDS011;3628;48.654;8.932;2023-04-01T01:57:19;0.93;;;0.23;;
7173;SDS011;3628;48.654;8.932;2023-04-01T01:59:48;1.07;;;0.27;;
7173;SDS011;3628;48.654;8.932;2023-04-01T02:02:17;2.17;;;0.20;;
7173;SDS011;3628;48.654;8.932;2023-04-01T02:04:43;1.50;;;0.30;;
7173;SDS011;3628;48.654;8.932;2023-04-01T02:07:12;0.63;;;0.20;;
7173;SDS011;3628;48.654;8.932;2023-04-01T02:09:46;1.10;;;0.03;;
7173;SDS011;3628;48.654;8.932;2023-04-01T02:12:12;0.77;;;0.10;;
7173;SDS011;3628;48.654;8.932;2023-04-01T02:14:53;0.67;;;0.27;;
7173;SDS011;3628;48.654;8.932;2023-04-01T02:17:25;0.57;;;0.10;;
7173;SDS011;3628;48.654;8.932;2023-04-01T02:20:04;0.67;;;0.10;;
7173;SDS011;3628;48.654;8.932;2023-04-01T02:22:39;0.23;;;0.10;;
7173;SDS011;3628;48.654;8.932;2023-04-01T02:25:10;1.47;;;0.10;;
7173;SDS011;3628;48.654;8.932;2023-04-01T02:27:39;0.80;;;0.17;;
7173;SDS011;3628;48.654;8.932;2023-04-01T02:30:07;0.53;;;0.20;;
7173;SDS011;3628;48.654;8.932;2023-04-01T02:32:33;0.77;;;0.20;;
7173;SDS011;3628;48.654;8.932;2023-04-01T02:35:02;1.73;;;0.20;;
7173;SDS011;3628;48.654;8.932;2023-04-01T02:37:31;0.67;;;0.20;;
7173;SDS011;3628;48.654;8.932;2023-04-01T02:40:04;0.93;;;0.00;;
7173;SDS011;3628;48.654;8.932;2023-04-01T02:42:32;0.13;;;0.13;;
7173;SDS011;3628;48.654;8.932;2023-04-01T02:44:58;0.10;;;0.10;;
7173;SDS011;3628;48.654;8.932;2023-04-01T02:47:24;0.10;;;0.10;;
7173;SDS011;3628;48.654;8.932;2023-04-01T02:49:50;0.00;;;0.00;;
7173;SDS011;3628;48.654;8.932;2023-04-01T02:52:15;0.10;;;0.10;;
7173;SDS011;3628;48.654;8.932;2023-04-01T02:54:41;0.10;;;0.00;;
7173;SDS011;3628;48.654;8.932;2023-04-01T02:57:06;0.00;;;0.00;;
7173;SDS011;3628;48.654;8.932;2023-04-01T02:59:32;0.37;;;0.10;;
7173;SDS011;3628;48.654;8.932;2023-04-01T03:01:58;0.50;;;0.10;;
7173;SDS011;3628;48.654;8.932;2023-04-01T03:04:23;0.20;;;0.20;;
7173;SDS011;3628;48.654;8.932;2023-04-01T03:06:49;0.67;;;0.10;;
7173;SDS011;3628;48.654;8.932;2023-04-01T03:09:14;0.23;;;0.10;;
7173;SDS011;3628;48.654;8.932;2023-04-01T03:11:41;0.53;;;0.10;;
7173;SDS011;3628;48.654;8.932;2023-04-01T03:14:06;0.87;;;0.20;;
7173;SDS011;3628;48.654;8.932;2023-04-01T03:16:32;0.10;;;0.10;;
7173;SDS011;3628;48.654;8.932;2023-04-01T03:18:57;1.17;;;0.30;;
7173;SDS011;3628;48.654;8.932;2023-04-01T03:21:24;1.80;;;0.20;;
7173;SDS011;3628;48.654;8.932;2023-04-01T03:23:50;0.70;;;0.30;;
7173;SDS011;3628;48.654;8.932;2023-04-01T03:26:16;0.40;;;0.10;;
7173;SDS011;3628;48.654;8.932;2023-04-01T03:28:43;0.47;;;0.23;;
7173;SDS011;3628;48.654;8.932;2023-04-01T03:31:08;0.40;;;0.10;;
7173;SDS011;3628;48.654;8.932;2023-04-01T03:33:34;0.40;;;0.20;;
7173;SDS011;3628;48.654;8.932;2023-04-01T03:36:00;0.60;;;0.17;;
7173;SDS011;3628;48.654;8.932;2023-04-01T03:38:26;0.30;;;0.17;;
7173;SDS011;3628;48.654;8.932;2023-04-01T03:40:51;1.30;;;0.20;;
7173;SDS011;3628;48.654;8.932;2023-04-01T03:43:17;2.20;;;0.40;;
7173;SDS011;3628;48.654;8.932;2023-04-01T03:45:46;0.73;;;0.30;;
7173;SDS011;3628;48.654;8.932;2023-04-01T03:48:12;2.27;;;0.17;;
7173;SDS011;3628;48.654;8.932;2023-04-01T03:50:41;0.70;;;0.10;;
7173;SDS011;3628;48.654;8.932;2023-04-01T03:53:07;0.43;;;0.20;;
7173;SDS011;3628;48.654;8.932;2023-04-01T03:55:33;0.57;;;0.10;;
7173;SDS011;3628;48.654;8.932;2023-04-01T03:58:00;1.77;;;0.17;;
7173;SDS011;3628;48.654;8.932;2023-04-01T04:00:27;3.80;;;0.30;;
7173;SDS011;3628;48.654;8.932;2023-04-01T04:02:56;0.73;;;0.30;;
7173;SDS011;3628;48.654;8.932;2023-04-01T04:05:25;0.93;;;0.27;;
7173;SDS011;3628;48.654;8.932;2023-04-01T04:07:51;0.00;;;0.00;;
7173;SDS011;3628;48.654;8.932;2023-04-01T04:10:17;0.53;;;0.20;;
7173;SDS011;3628;48.654;8.932;2023-04-01T04:12:43;0.40;;;0.20;;
7173;SDS011;3628;48.654;8.932;2023-04-01T04:15:09;0.10;;;0.10;;
7173;SDS011;3628;48.654;8.932;2023-04-01T04:17:35;0.40;;;0.20;;
7173;SDS011;3628;48.654;8.932;2023-04-01T04:20:01;1.37;;;0.30;;
7173;SDS011;3628;48.654;8.932;2023-04-01T04:22:27;0.30;;;0.20;;
7173;SDS011;3628;48.654;8.932;2023-04-01T04:24:52;0.10;;;0.10;;
7173;SDS011;3628;48.654;8.932;2023-04-01T04:27:18;0.70;;;0.10;;
7173;SDS011;3628;48.654;8.932;2023-04-01T04:29:43;0.63;;;0.20;;
7173;SDS011;3628;48.654;8.932;2023-04-01T04:32:09;0.77;;;0.20;;
7173;SDS011;3628;48.654;8.932;2023-04-01T04:34:35;0.33;;;0.20;;
7173;SDS011;3628;48.654;8.932;2023-04-01T04:37:00;1.20;;;0.30;;
7173;SDS011;3628;48.654;8.932;2023-04-01T04:39:26;0.13;;;0.13;;
7173;SDS011;3628;48.654;8.932;2023-04-01T04:41:51;0.50;;;0.27;;
7173;SDS011;3628;48.654;8.932;2023-04-01T04:44:17;1.27;;;0.50;;
7173;SDS011;3628;48.654;8.932;2023-04-01T04:46:43;0.70;;;0.20;;
7173;SDS011;3628;48.654;8.932;2023-04-01T04:49:08;1.03;;;0.23;;
7173;SDS011;3628;48.654;8.932;2023-04-01T04:51:34;1.33;;;0.40;;
7173;SDS011;3628;48.654;8.932;2023-04-01T04:54:01;1.20;;;0.30;;
7173;SDS011;3628;48.654;8.932;2023-04-01T04:56:27;1.07;;;0.30;;
7173;SDS011;3628;48.654;8.932;2023-04-01T04:58:53;1.87;;;0.30;;
7173;SDS011;3628;48.654;8.932;2023-04-01T05:01:18;1.23;;;0.40;;
7173;SDS011;3628;48.654;8.932;2023-04-01T05:03:44;1.43;;;0.43;;
7173;SDS011;3628;48.654;8.932;2023-04-01T05:06:11;2.40;;;0.40;;
7173;SDS011;3628;48.654;8.932;2023-04-01T05:08:38;1.23;;;0.37;;
7173;SDS011;3628;48.654;8.932;2023-04-01T05:11:06;1.83;;;0.40;;
7173;SDS011;3628;48.654;8.932;2023-04-01T05:13:35;0.63;;;0.20;;
7173;SDS011;3628;48.654;8.932;2023-04-01T05:16:00;0.97;;;0.40;;
7173;SDS011;3628;48.654;8.932;2023-04-01T05:18:26;1.20;;;0.30;;
7173;SDS011;3628;48.654;8.932;2023-04-01T05:20:53;1.90;;;0.40;;
7173;SDS011;3628;48.654;8.932;2023-04-01T05:23:19;0.43;;;0.30;;
7173;SDS011;3628;48.654;8.932;2023-04-01T05:25:46;1.17;;;0.40;;
7173;SDS011;3628;48.654;8.932;2023-04-01T05:28:12;1.60;;;0.50;;
7173;SDS011;3628;48.654;8.932;2023-04-01T05:30:41;0.97;;;0.30;;
7173;SDS011;3628;48.654;8.932;2023-04-01T05:33:08;1.30;;;0.40;;
7173;SDS011;3628;48.654;8.932;2023-04-01T05:35:34;1.07;;;0.23;;
7173;SDS011;3628;48.654;8.932;2023-04-01T05:38:00;2.37;;;0.40;;
7173;SDS011;3628;48.654;8.932;2023-04-01T05:40:27;0.67;;;0.30;;
7173;SDS011;3628;48.654;8.932;2023-04-01T05:42:53;1.20;;;0.50;;
7173;SDS011;3628;48.654;8.932;2023-04-01T05:45:19;2.83;;;0.50;;
7173;SDS011;3628;48.654;8.932;2023-04-01T05:47:45;1.73;;;0.50;;
7173;SDS011;3628;48.654;8.932;2023-04-01T05:50:11;1.37;;;0.50;;
7173;SDS011;3628;48.654;8.932;2023-04-01T05:52:37;1.10;;;0.63;;
7173;SDS011;3628;48.654;8.932;2023-04-01T05:55:03;1.80;;;0.33;;
7173;SDS011;3628;48.654;8.932;2023-04-01T05:57:29;2.20;;;0.67;;
7173;SDS011;3628;48.654;8.932;2023-04-01T05:59:55;1.63;;;0.67;;
7173;SDS011;3628;48.654;8.932;2023-04-01T06:02:20;0.20;;;0.20;;
7173;SDS011;3628;48.654;8.932;2023-04-01T06:04:46;0.60;;;0.40;;
7173;SDS011;3628;48.654;8.932;2023-04-01T06:07:12;0.70;;;0.40;;
7173;SDS011;3628;48.654;8.932;2023-04-01T06:09:39;0.47;;;0.27;;
7173;SDS011;3628;48.654;8.932;2023-04-01T06:12:24;1.67;;;0.40;;
7173;SDS011;3628;48.654;8.932;2023-04-01T06:17:52;0.53;;;0.20;;
7173;SDS011;3628;48.654;8.932;2023-04-01T06:21:37;0.73;;;0.20;;
7173;SDS011;3628;48.654;8.932;2023-04-01T06:23:46;0.07;;;0.07;;
7173;SDS011;3628;48.654;8.932;2023-04-01T06:31:37;0.47;;;0.30;;
7173;SDS011;3628;48.654;8.932;2023-04-01T06:39:39;2.07;;;0.20;;
7173;SDS011;3628;48.654;8.932;2023-04-01T06:44:59;1.13;;;0.30;;
7173;SDS011;3628;48.654;8.932;2023-04-01T06:47:55;0.70;;;0.30;;
7173;SDS011;3628;48.654;8.932;2023-04-01T06:50:45;2.20;;;0.40;;
7173;SDS011;3628;48.654;8.932;2023-04-01T06:53:40;0.90;;;0.30;;
7173;SDS011;3628;48.654;8.932;2023-04-01T06:56:11;1.77;;;0.30;;
7173;SDS011;3628;48.654;8.932;2023-04-01T07:01:09;0.83;;;0.20;;
7173;SDS011;3628;48.654;8.932;2023-04-01T07:03:43;0.40;;;0.20;;
7173;SDS011;3628;48.654;8.932;2023-04-01T07:06:16;1.13;;;0.10;;
7173;SDS011;3628;48.654;8.932;2023-04-01T07:08:52;0.73;;;0.40;;
7173;SDS011;3628;48.654;8.932;2023-04-01T07:11:33;0.83;;;0.30;;
7173;SDS011;3628;48.654;8.932;2023-04-01T07:14:20;0.20;;;0.13;;
7173;SDS011;3628;48.654;8.932;2023-04-01T07:19:47;0.63;;;0.20;;
7173;SDS011;3628;48.654;8.932;2023-04-01T07:24:55;1.47;;;0.70;;
7173;SDS011;3628;48.654;8.932;2023-04-01T07:27:26;1.70;;;0.60;;
7173;SDS011;3628;48.654;8.932;2023-04-01T07:29:52;2.00;;;0.47;;
7173;SDS011;3628;48.654;8.932;2023-04-01T07:32:27;1.50;;;0.30;;
7173;SDS011;3628;48.654;8.932;2023-04-01T07:35:11;0.93;;;0.30;;
7173;SDS011;3628;48.654;8.932;2023-04-01T07:40:36;1.73;;;0.30;;
7173;SDS011;3628;48.654;8.932;2023-04-01T07:43:26;1.07;;;0.30;;
7173;SDS011;3628;48.654;8.932;2023-04-01T07:48:58;1.80;;;0.60;;
7173;SDS011;3628;48.654;8.932;2023-04-01T07:54:07;0.87;;;0.30;;
7173;SDS011;3628;48.654;8.932;2023-04-01T07:56:45;1.17;;;0.30;;
7173;SDS011;3628;48.654;8.932;2023-04-01T08:01:55;1.50;;;0.30;;
7173;SDS011;3628;48.654;8.932;2023-04-01T08:04:53;1.03;;;0.40;;
7173;SDS011;3628;48.654;8.932;2023-04-01T08:07:31;1.60;;;0.40;;
7173;SDS011;3628;48.654;8.932;2023-04-01T08:15:12;1.13;;;0.53;;
7173;SDS011;3628;48.654;8.932;2023-04-01T08:17:54;1.07;;;0.40;;
7173;SDS011;3628;48.654;8.932;2023-04-01T08:20:28;0.47;;;0.30;;
7173;SDS011;3628;48.654;8.932;2023-04-01T08:23:00;0.30;;;0.23;;
7173;SDS011;3628;48.654;8.932;2023-04-01T08:25:29;2.23;;;0.47;;
7173;SDS011;3628;48.654;8.932;2023-04-01T08:28:05;1.37;;;0.40;;
7173;SDS011;3628;48.654;8.932;2023-04-01T08:33:21;0.60;;;0.37;;
7173;SDS011;3628;48.654;8.932;2023-04-01T08:35:52;0.40;;;0.20;;
7173;SDS011;3628;48.654;8.932;2023-04-01T08:41:33;0.67;;;0.30;;
7173;SDS011;3628;48.654;8.932;2023-04-01T08:54:46;0.77;;;0.30;;
7173;SDS011;3628;48.654;8.932;2023-04-01T09:00:21;2.10;;;0.30;;
7173;SDS011;3628;48.654;8.932;2023-04-01T09:03:13;1.00;;;0.27;;
7173;SDS011;3628;48.654;8.932;2023-04-01T09:14:26;0.50;;;0.30;;
7173;SDS011;3628;48.654;8.932;2023-04-01T09:27:49;0.27;;;0.20;;
7173;SDS011;3628;48.654;8.932;2023-04-01T09:30:32;0.20;;;0.03;;
7173;SDS011;3628;48.654;8.932;2023-04-01T09:35:46;0.40;;;0.10;;
7173;SDS011;3628;48.654;8.932;2023-04-01T09:38:23;0.00;;;0.00;;
7173;SDS011;3628;48.654;8.932;2023-04-01T09:40:58;0.90;;;0.20;;
7173;SDS011;3628;48.654;8.932;2023-04-01T09:43:44;0.23;;;0.17;;
7173;SDS011;3628;48.654;8.932;2023-04-01T09:46:20;1.53;;;0.20;;
7173;SDS011;3628;48.654;8.932;2023-04-01T09:48:58;0.20;;;0.10;;
7173;SDS011;3628;48.654;8.932;2023-04-01T09:57:54;0.10;;;0.10;;
7173;SDS011;3628;48.654;8.932;2023-04-01T10:14:22;0.10;;;0.00;;
7173;SDS011;3628;48.654;8.932;2023-04-01T10:19:59;0.20;;;0.20;;
7173;SDS011;3628;48.654;8.932;2023-04-01T10:22:41;0.13;;;0.10;;
7173;SDS011;3628;48.654;8.932;2023-04-01T10:25:26;1.90;;;0.10;;
7173;SDS011;3628;48.654;8.932;2023-04-01T10:36:13;0.30;;;0.00;;
7173;SDS011;3628;48.654;8.932;2023-04-01T11:01:03;0.10;;;0.10;;
7173;SDS011;3628;48.654;8.932;2023-04-01T11:04:01;0.10;;;0.10;;
7173;SDS011;3628;48.654;8.932;2023-04-01T11:21:42;0.00;;;0.00;;
7173;SDS011;3628;48.654;8.932;2023-04-01T11:24:34;0.00;;;0.00;;
7173;SDS011;3628;48.654;8.932;2023-04-01T11:30:15;0.10;;;0.10;;
7173;SDS011;3628;48.654;8.932;2023-04-01T11:33:03;0.07;;;0.07;;
7173;SDS011;3628;48.654;8.932;2023-04-01T11:35:55;0.00;;;0.00;;
7173;SDS011;3628;48.654;8.932;2023-04-01T11:41:13;0.07;;;0.07;;
7173;SDS011;3628;48.654;8.932;2023-04-01T11:44:09;0.40;;;0.30;;
7173;SDS011;3628;48.654;8.932;2023-04-01T11:52:39;0.90;;;0.10;;
7173;SDS011;3628;48.654;8.932;2023-04-01T12:00:46;0.20;;;0.10;;
7173;SDS011;3628;48.654;8.932;2023-04-01T12:03:21;0.07;;;0.07;;
7173;SDS011;3628;48.654;8.932;2023-04-01T12:23:18;0.17;;;0.07;;
7173;SDS011;3628;48.654;8.932;2023-04-01T12:36:30;0.67;;;0.47;;
7173;SDS011;3628;48.654;8.932;2023-04-01T12:47:49;1.17;;;0.60;;
7173;SDS011;3628;48.654;8.932;2023-04-01T12:50:38;1.40;;;0.10;;
7173;SDS011;3628;48.654;8.932;2023-04-01T12:55:53;0.17;;;0.10;;
7173;SDS011;3628;48.654;8.932;2023-04-01T12:58:29;0.20;;;0.10;;
7173;SDS011;3628;48.654;8.932;2023-04-01T13:10:13;0.20;;;0.10;;
7173;SDS011;3628;48.654;8.932;2023-04-01T13:19:25;0.10;;;0.10;;
7173;SDS011;3628;48.654;8.932;2023-04-01T13:22:29;0.10;;;0.10;;
7173;SDS011;3628;48.654;8.932;2023-04-01T13:27:50;0.23;;;0.23;;
7173;SDS011;3628;48.654;8.932;2023-04-01T13:41:38;0.00;;;0.00;;
7173;SDS011;3628;48.654;8.932;2023-04-01T13:44:47;0.00;;;0.00;;
7173;SDS011;3628;48.654;8.932;2023-04-01T13:50:01;0.60;;;0.20;;
7173;SDS011;3628;48.654;8.932;2023-04-01T14:06:19;0.20;;;0.20;;
7173;SDS011;3628;48.654;8.932;2023-04-01T14:17:03;0.33;;;0.30;;
7173;SDS011;3628;48.654;8.932;2023-04-01T14:31:13;0.37;;;0.37;;
7173;SDS011;3628;48.654;8.932;2023-04-01T14:33:46;0.10;;;0.00;;
7173;SDS011;3628;48.654;8.932;2023-04-01T14:47:50;0.10;;;0.10;;
7173;SDS011;3628;48.654;8.932;2023-04-01T14:50:20;0.20;;;0.10;;
7173;SDS011;3628;48.654;8.932;2023-04-01T14:52:59;0.07;;;0.07;;
7173;SDS011;3628;48.654;8.932;2023-04-01T14:58:09;0.10;;;0.00;;
7173;SDS011;3628;48.654;8.932;2023-04-01T15:00:41;0.77;;;0.13;;
7173;SDS011;3628;48.654;8.932;2023-04-01T15:08:52;0.10;;;0.10;;
7173;SDS011;3628;48.654;8.932;2023-04-01T15:27:53;0.40;;;0.40;;
7173;SDS011;3628;48.654;8.932;2023-04-01T15:30:27;0.10;;;0.10;;
7173;SDS011;3628;48.654;8.932;2023-04-01T15:41:35;0.63;;;0.40;;
7173;SDS011;3628;48.654;8.932;2023-04-01T15:50:00;0.20;;;0.20;;
7173;SDS011;3628;48.654;8.932;2023-04-01T15:52:49;0.10;;;0.10;;
7173;SDS011;3628;48.654;8.932;2023-04-01T16:07:03;1.13;;;0.33;;
7173;SDS011;3628;48.654;8.932;2023-04-01T16:12:34;0.57;;;0.20;;
7173;SDS011;3628;48.654;8.932;2023-04-01T16:15:18;0.50;;;0.30;;
7173;SDS011;3628;48.654;8.932;2023-04-01T16:18:04;0.90;;;0.30;;
7173;SDS011;3628;48.654;8.932;2023-04-01T16:21:05;1.67;;;0.30;;
7173;SDS011;3628;48.654;8.932;2023-04-01T16:23:39;0.67;;;0.40;;
7173;SDS011;3628;48.654;8.932;2023-04-01T16:29:07;0.37;;;0.33;;
7173;SDS011;3628;48.654;8.932;2023-04-01T16:34:16;0.67;;;0.27;;
7173;SDS011;3628;48.654;8.932;2023-04-01T16:42:25;1.00;;;0.30;;
7173;SDS011;3628;48.654;8.932;2023-04-01T16:48:18;0.70;;;0.70;;
7173;SDS011;3628;48.654;8.932;2023-04-01T16:50:58;1.00;;;0.40;;
7173;SDS011;3628;48.654;8.932;2023-04-01T16:53:47;1.57;;;1.00;;
7173;SDS011;3628;48.654;8.932;2023-04-01T16:56:25;2.03;;;1.00;;
7173;SDS011;3628;48.654;8.932;2023-04-01T16:59:02;0.60;;;0.60;;
7173;SDS011;3628;48.654;8.932;2023-04-01T17:20:52;0.40;;;0.20;;
7173;SDS011;3628;48.654;8.932;2023-04-01T17:23:23;0.70;;;0.47;;
7173;SDS011;3628;48.654;8.932;2023-04-01T17:26:01;1.03;;;0.30;;
7173;SDS011;3628;48.654;8.932;2023-04-01T17:50:07;0.70;;;0.60;;
7173;SDS011;3628;48.654;8.932;2023-04-01T17:58:16;0.70;;;0.40;;
7173;SDS011;3628;48.654;8.932;2023-04-01T18:17:26;1.10;;;0.93;;
7173;SDS011;3628;48.654;8.932;2023-04-01T18:25:46;0.10;;;0.10;;
7173;SDS011;3628;48.654;8.932;2023-04-01T18:30:50;1.90;;;0.40;;
7173;SDS011;3628;48.654;8.932;2023-04-01T18:33:25;0.60;;;0.60;;
7173;SDS011;3628;48.654;8.932;2023-04-01T18:36:25;0.40;;;0.40;;
7173;SDS011;3628;48.654;8.932;2023-04-01T18:41:50;0.73;;;0.60;;
7173;SDS011;3628;48.654;8.932;2023-04-01T18:50:02;1.20;;;0.80;;
7173;SDS011;3628;48.654;8.932;2023-04-01T18:52:52;1.57;;;0.53;;
7173;SDS011;3628;48.654;8.932;2023-04-01T19:00:43;0.83;;;0.80;;
7173;SDS011;3628;48.654;8.932;2023-04-01T19:03:24;0.80;;;0.67;;
7173;SDS011;3628;48.654;8.932;2023-04-01T19:05:56;1.43;;;0.63;;
7173;SDS011;3628;48.654;8.932;2023-04-01T19:08:33;1.07;;;0.50;;
7173;SDS011;3628;48.654;8.932;2023-04-01T19:13:42;0.83;;;0.50;;
7173;SDS011;3628;48.654;8.932;2023-04-01T19:19:22;3.00;;;1.93;;
7173;SDS011;3628;48.654;8.932;2023-04-01T19:22:13;1.43;;;0.90;;
7173;SDS011;3628;48.654;8.932;2023-04-01T19:27:41;1.17;;;0.90;;
7173;SDS011;3628;48.654;8.932;2023-04-01T19:33:20;1.03;;;0.90;;
7173;SDS011;3628;48.654;8.932;2023-04-01T19:36:11;0.93;;;0.80;;
7173;SDS011;3628;48.654;8.932;2023-04-01T19:38:57;0.60;;;0.60;;
7173;SDS011;3628;48.654;8.932;2023-04-01T19:41:39;0.67;;;0.67;;
7173;SDS011;3628;48.654;8.932;2023-04-01T19:47:06;0.47;;;0.47;;
7173;SDS011;3628;48.654;8.932;2023-04-01T19:52:46;0.90;;;0.60;;
7173;SDS011;3628;48.654;8.932;2023-04-01T19:55:28;0.70;;;0.70;;
7173;SDS011;3628;48.654;8.932;2023-04-01T19:58:26;1.80;;;1.30;;
7173;SDS011;3628;48.654;8.932;2023-04-01T20:00:58;1.57;;;1.03;;
7173;SDS011;3628;48.654;8.932;2023-04-01T20:03:36;1.20;;;1.10;;
7173;SDS011;3628;48.654;8.932;2023-04-01T20:14:29;5.00;;;3.37;;
7173;SDS011;3628;48.654;8.932;2023-04-01T20:17:07;3.60;;;2.43;;
7173;SDS011;3628;48.654;8.932;2023-04-01T20:22:37;5.30;;;4.07;;
7173;SDS011;3628;48.654;8.932;2023-04-01T20:25:17;2.47;;;2.17;;
7173;SDS011;3628;48.654;8.932;2023-04-01T20:38:41;1.77;;;1.50;;
7173;SDS011;3628;48.654;8.932;2023-04-01T20:41:24;1.47;;;1.27;;
7173;SDS011;3628;48.654;8.932;2023-04-01T20:44:14;1.20;;;1.10;;
7173;SDS011;3628;48.654;8.932;2023-04-01T20:46:48;3.40;;;1.33;;
7173;SDS011;3628;48.654;8.932;2023-04-01T20:52:17;1.10;;;1.00;;
7173;SDS011;3628;48.654;8.932;2023-04-01T20:58:36;0.80;;;0.80;;
7173;SDS011;3628;48.654;8.932;2023-04-01T21:01:25;0.70;;;0.50;;
7173;SDS011;3628;48.654;8.932;2023-04-01T21:09:41;0.90;;;0.50;;
7173;SDS011;3628;48.654;8.932;2023-04-01T21:13:18;1.33;;;0.73;;
7173;SDS011;3628;48.654;8.932;2023-04-01T21:31:48;0.97;;;0.70;;
7173;SDS011;3628;48.654;8.932;2023-04-01T21:34:31;0.37;;;0.37;;
7173;SDS011;3628;48.654;8.932;2023-04-01T21:46:02;1.03;;;0.50;;
7173;SDS011;3628;48.654;8.932;2023-04-01T21:54:19;0.60;;;0.27;;
7173;SDS011;3628;48.654;8.932;2023-04-01T21:57:03;0.83;;;0.30;;
7173;SDS011;3628;48.654;8.932;2023-04-01T22:08:30;0.47;;;0.40;;
7173;SDS011;3628;48.654;8.932;2023-04-01T22:16:23;0.30;;;0.30;;
7173;SDS011;3628;48.654;8.932;2023-04-01T22:19:20;0.63;;;0.30;;
7173;SDS011;3628;48.654;8.932;2023-04-01T22:27:46;0.50;;;0.40;;
7173;SDS011;3628;48.654;8.932;2023-04-01T22:30:22;1.70;;;0.50;;
7173;SDS011;3628;48.654;8.932;2023-04-01T22:32:49;0.53;;;0.20;;
7173;SDS011;3628;48.654;8.932;2023-04-01T22:35:30;0.50;;;0.50;;
7173;SDS011;3628;48.654;8.932;2023-04-01T22:40:40;0.37;;;0.20;;
7173;SDS011;3628;48.654;8.932;2023-04-01T22:43:11;0.47;;;0.27;;
7173;SDS011;3628;48.654;8.932;2023-04-01T22:54:21;1.37;;;0.40;;
7173;SDS011;3628;48.654;8.932;2023-04-01T22:57:00;0.10;;;0.10;;
7173;SDS011;3628;48.654;8.932;2023-04-01T22:59:37;0.30;;;0.13;;
7173;SDS011;3628;48.654;8.932;2023-04-01T23:02:25;0.30;;;0.07;;
7173;SDS011;3628;48.654;8.932;2023-04-01T23:04:56;0.30;;;0.20;;
7173;SDS011;3628;48.654;8.932;2023-04-01T23:10:39;0.37;;;0.37;;
7173;SDS011;3628;48.654;8.932;2023-04-01T23:13:11;1.37;;;1.10;;
7173;SDS011;3628;48.654;8.932;2023-04-01T23:15:41;1.47;;;0.60;;
7173;SDS011;3628;48.654;8.932;2023-04-01T23:21:23;0.20;;;0.20;;
7173;SDS011;3628;48.654;8.932;2023-04-01T23:26:43;1.00;;;0.80;;
7173;SDS011;3628;48.654;8.932;2023-04-01T23:29:19;0.80;;;0.20;;
7173;SDS011;3628;48.654;8.932;2023-04-01T23:31:56;1.73;;;0.30;;
7173;SDS011;3628;48.654;8.932;2023-04-01T23:34:35;0.33;;;0.10;;
7173;SDS011;3628;48.654;8.932;2023-04-01T23:37:04;1.57;;;0.90;;
7173;SDS011;3628;48.654;8.932;2023-04-01T23:39:35;1.13;;;0.27;;
7173;SDS011;3628;48.654;8.932;2023-04-01T23:44:38;0.10;;;0.10;;
7173;SDS011;3628;48.654;8.932;2023-04-01T23:47:05;0.20;;;0.20;;
7173;SDS011;3628;48.654;8.932;2023-04-01T23:49:35;0.20;;;0.20;;
7173;SDS011;3628;48.654;8.932;2023-04-01T23:55:11;0.30;;;0.20;;
7173;SDS011;3628;48.654;8.932;2023-04-01T23:57:42;1.50;;;0.20;;
